Time;durP1;ratioP1;P1;durP2;ratioP2;P2;SDS_P1;SDS_P2;PMS_P1;PMS_P2;Temp;Humidity;BMP_temperature;BMP_pressure;BME280_temperature;BME280_humidity;BME280_pressure;Samples;Min_cycle;Max_cycle;Signal;HPM_P1;HPM_P2
2024/02/11 00:01:12;;;;;;;8.40;4.30;;;13.10;99.90;;;13.37;71.28;98213.16;4882621;28;102625;-38
2024/02/11 00:03:39;;;;;;;5.47;3.87;;;13.10;99.90;;;13.38;71.14;98230.72;4855035;28;99008;-37
2024/02/11 00:06:09;;;;;;;7.10;4.23;;;13.20;99.90;;;13.40;70.92;98229.59;4874091;28;118433;-37
2024/02/11 00:08:38;;;;;;;6.97;4.63;;;13.20;99.90;;;13.42;70.49;98236.56;4865506;28;104846;-36
2024/02/11 00:11:05;;;;;;;4.50;3.60;;;13.20;99.90;;;13.45;70.48;98231.00;4866949;28;104328;-37
2024/02/11 00:13:31;;;;;;;6.50;4.10;;;13.20;99.90;;;13.47;70.20;98226.44;4868454;28;103547;-38
2024/02/11 00:16:00;;;;;;;7.53;3.77;;;13.20;99.90;;;13.51;70.39;98230.50;4877390;28;102370;-36
2024/02/11 00:18:28;;;;;;;5.13;3.53;;;13.30;99.90;;;13.67;68.92;98226.41;4858477;28;99867;-36
2024/02/11 00:20:57;;;;;;;6.77;3.83;;;13.30;99.90;;;13.63;69.42;98229.47;4862977;28;100457;-36
2024/02/11 00:23:24;;;;;;;6.73;3.87;;;13.40;99.90;;;13.60;69.77;98229.72;4867153;28;100826;-36
2024/02/11 00:25:53;;;;;;;5.40;3.27;;;13.40;99.90;;;13.64;68.98;98231.13;4871322;28;97256;-37
2024/02/11 00:28:23;;;;;;;4.37;2.90;;;13.40;99.90;;;13.70;69.24;98230.59;4864504;28;98648;-36
2024/02/11 00:30:49;;;;;;;4.67;2.83;;;13.40;99.90;;;13.81;68.36;98225.19;4848643;28;98976;-35
2024/02/11 00:33:19;;;;;;;4.60;2.87;;;13.40;99.90;;;13.94;67.56;98225.81;4893640;28;98182;-38
2024/02/11 00:35:47;;;;;;;5.67;2.90;;;13.60;99.90;;;13.85;68.80;98225.78;4884040;28;108187;-37
2024/02/11 00:38:15;;;;;;;3.43;2.43;;;13.60;99.90;;;13.77;68.72;98229.09;4861439;28;98491;-41
2024/02/11 00:40:44;;;;;;;5.10;2.57;;;13.50;99.90;;;13.78;68.74;98233.44;4882066;28;110372;-38
2024/02/11 00:43:09;;;;;;;6.47;2.80;;;13.50;99.90;;;13.76;68.77;98232.72;4868881;28;99221;-37
2024/02/11 00:45:35;;;;;;;4.43;3.30;;;13.50;99.90;;;13.74;68.96;98237.28;4883430;28;100171;-38
2024/02/11 00:48:05;;;;;;;5.73;3.83;;;13.50;99.90;;;13.76;69.46;98235.38;4881898;28;98689;-38
2024/02/11 00:50:33;;;;;;;5.40;3.73;;;13.50;99.90;;;13.76;69.46;98229.25;4870701;28;103882;-39
2024/02/11 00:53:05;;;;;;;4.40;2.97;;;13.50;99.90;;;13.77;69.28;98230.91;4871784;28;100742;-36
2024/02/11 00:55:33;;;;;;;3.90;2.57;;;13.50;99.90;;;13.70;69.57;98225.28;4867252;28;107361;-36
2024/02/11 00:58:01;;;;;;;7.77;3.50;;;13.40;99.90;;;13.76;69.02;98229.25;4863389;28;97548;-36
2024/02/11 01:00:27;;;;;;;6.23;3.27;;;13.50;99.90;;;13.88;67.61;98230.78;4883469;28;99518;-38
2024/02/11 01:02:53;;;;;;;3.13;2.50;;;13.50;99.90;;;13.98;67.59;98224.56;4886379;28;98659;-39
2024/02/11 01:05:19;;;;;;;4.30;3.20;;;13.60;99.90;;;13.90;67.80;98229.72;4858263;28;117071;-37
2024/02/11 01:07:50;;;;;;;4.53;3.03;;;13.60;99.90;;;13.83;68.49;98239.16;4876116;28;101301;-35
2024/02/11 01:10:16;;;;;;;4.30;3.00;;;13.60;99.90;;;13.84;68.38;98232.88;4916202;28;103031;-37
2024/02/11 01:12:45;;;;;;;6.17;3.20;;;13.60;99.90;;;14.06;65.85;98226.56;4875373;28;100438;-37
2024/02/11 01:15:16;;;;;;;4.97;2.70;;;13.70;99.90;;;13.96;67.65;98236.28;4868502;28;100683;-37
2024/02/11 01:17:43;;;;;;;3.53;2.70;;;13.70;99.90;;;13.88;68.55;98239.59;4873328;28;98856;-37
2024/02/11 01:20:14;;;;;;;4.43;2.40;;;13.60;99.90;;;13.90;68.62;98237.66;4878481;28;98571;-38
2024/02/11 01:22:47;;;;;;;5.10;2.50;;;13.60;99.90;;;13.90;68.27;98235.00;4895151;28;101354;-36
2024/02/11 01:25:19;;;;;;;4.13;2.70;;;13.60;99.90;;;13.96;68.45;98241.56;4873792;28;97426;-37
2024/02/11 01:27:48;;;;;;;4.13;2.00;;;13.70;99.90;;;14.08;67.20;98244.97;4866247;28;100646;-38
2024/02/11 01:30:14;;;;;;;4.60;2.83;;;13.80;99.90;;;14.10;66.72;98238.56;4830459;28;102135;-35
2024/02/11 01:32:41;;;;;;;3.70;2.00;;;13.80;99.90;;;14.19;66.18;98242.22;4848193;28;106255;-38
2024/02/11 01:35:07;;;;;;;3.20;2.20;;;13.90;99.90;;;14.24;64.72;98234.69;4868971;28;99462;-37
2024/02/11 01:37:34;;;;;;;4.17;1.87;;;13.90;99.90;;;14.29;65.71;98248.34;4869278;28;101114;-38
2024/02/11 01:40:00;;;;;;;3.43;2.20;;;13.90;99.90;;;14.31;65.89;98241.09;4871071;28;100022;-36
2024/02/11 01:42:26;;;;;;;3.03;2.10;;;14.00;99.90;;;14.28;66.15;98241.38;4869753;28;97897;-37
2024/02/11 01:44:58;;;;;;;2.80;2.10;;;14.00;99.90;;;14.32;65.60;98250.75;4871050;28;101911;-37
2024/02/11 01:47:23;;;;;;;3.47;1.93;;;13.90;99.90;;;14.25;66.52;98246.97;4875022;28;114184;-37
2024/02/11 01:49:52;;;;;;;5.90;2.40;;;13.90;99.90;;;14.22;66.75;98247.25;4894775;28;116600;-37
2024/02/11 01:52:18;;;;;;;3.23;2.40;;;13.90;99.90;;;14.19;66.82;98250.16;4870003;28;102311;-37
2024/02/11 01:54:44;;;;;;;3.53;2.43;;;13.90;99.90;;;14.25;66.45;98244.31;4882139;28;100063;-37
2024/02/11 01:57:10;;;;;;;3.33;2.37;;;13.90;99.90;;;14.23;66.06;98243.63;4875710;28;100437;-36
2024/02/11 01:59:38;;;;;;;5.50;2.53;;;13.90;99.90;;;14.22;66.90;98249.88;4878165;28;98562;-38
2024/02/11 02:02:09;;;;;;;4.83;2.30;;;13.90;99.90;;;14.18;66.96;98251.16;4866903;28;101318;-36
2024/02/11 02:04:37;;;;;;;2.87;2.13;;;13.90;99.90;;;14.25;66.35;98253.09;4875157;28;97779;-37
2024/02/11 02:07:04;;;;;;;2.70;2.30;;;13.90;99.90;;;14.21;66.14;98250.88;4879263;28;108675;-37
2024/02/11 02:09:33;;;;;;;3.27;2.40;;;13.90;99.90;;;14.26;66.21;98246.81;4872853;28;97954;-37
2024/02/11 02:12:02;;;;;;;3.20;2.30;;;13.90;99.90;;;14.19;66.97;98244.88;4869283;28;99718;-35
2024/02/11 02:14:28;;;;;;;3.73;2.00;;;13.90;99.90;;;14.22;66.32;98244.59;4873777;28;105788;-36
2024/02/11 02:16:55;;;;;;;2.93;1.93;;;13.90;99.90;;;14.27;66.24;98247.66;4853152;28;99932;-41
2024/02/11 02:19:20;;;;;;;2.47;1.93;;;13.90;99.90;;;14.29;65.77;98243.06;4908980;28;111947;-38
2024/02/11 02:21:54;;;;;;;3.57;2.40;;;14.00;99.90;;;14.26;66.73;98248.63;4908208;28;108524;-37
2024/02/11 02:24:20;;;;;;;2.40;1.57;;;14.00;99.90;;;14.36;64.03;98240.72;4907741;28;97242;-36
2024/02/11 02:26:46;;;;;;;4.13;2.23;;;14.00;99.90;;;14.38;65.50;98247.56;4906384;28;97982;-37
2024/02/11 02:29:12;;;;;;;3.03;2.00;;;14.10;99.90;;;14.37;65.97;98240.56;4914220;28;99208;-37
2024/02/11 02:31:38;;;;;;;2.80;1.90;;;14.10;99.90;;;14.37;64.38;98240.56;4902339;28;101542;-36
2024/02/11 02:34:04;;;;;;;2.10;1.67;;;14.00;99.90;;;14.44;63.89;98244.38;4901809;28;109436;-37
2024/02/11 02:36:29;;;;;;;3.70;1.90;;;14.10;99.90;;;14.37;65.74;98243.22;4908884;28;116150;-36
2024/02/11 02:38:55;;;;;;;2.10;1.60;;;14.10;99.90;;;14.46;63.66;98245.06;4903438;28;99457;-37
2024/02/11 02:41:22;;;;;;;2.63;1.70;;;14.10;99.90;;;14.51;64.42;98245.50;4909052;28;111141;-38
2024/02/11 02:43:48;;;;;;;2.03;1.50;;;14.20;99.90;;;14.56;64.07;98235.31;4899748;28;97555;-37
2024/02/11 02:46:13;;;;;;;4.07;1.77;;;14.30;99.90;;;14.65;62.88;98241.63;4896988;28;112084;-39
2024/02/11 02:48:39;;;;;;;3.30;1.77;;;14.30;99.90;;;14.64;63.82;98244.41;4903492;28;102600;-36
2024/02/11 02:51:05;;;;;;;2.23;1.77;;;14.30;99.90;;;14.66;63.63;98239.81;4897993;28;116416;-36
2024/02/11 02:53:31;;;;;;;2.27;1.80;;;14.30;99.90;;;14.54;64.93;98241.75;4902172;28;114450;-37
2024/02/11 02:55:56;;;;;;;3.20;2.27;;;14.30;99.90;;;14.58;64.92;98248.44;4896609;28;115511;-37
2024/02/11 02:58:23;;;;;;;2.90;1.93;;;14.30;99.90;;;14.50;65.00;98235.88;4919182;28;125739;-36
2024/02/11 03:00:49;;;;;;;3.47;1.90;;;14.20;99.90;;;14.50;64.77;98241.19;4912983;28;105426;-37
2024/02/11 03:03:17;;;;;;;2.20;1.70;;;14.20;99.90;;;14.49;65.00;98242.16;4910309;28;97497;-37
2024/02/11 03:05:45;;;;;;;2.00;1.70;;;14.20;99.90;;;14.48;64.93;98243.16;4900069;28;97380;-37
2024/02/11 03:08:14;;;;;;;2.30;1.87;;;14.10;99.90;;;14.44;65.14;98241.72;4909037;28;102210;-37
2024/02/11 03:10:40;;;;;;;2.80;1.87;;;14.10;99.90;;;14.39;65.38;98238.63;4899410;28;99278;-36
2024/02/11 03:13:05;;;;;;;3.00;2.00;;;14.10;99.90;;;14.34;65.96;98243.50;4929553;28;107032;-37
2024/02/11 03:15:32;;;;;;;2.40;1.80;;;14.00;99.90;;;14.33;66.67;98254.25;4905334;28;102388;-37
2024/02/11 03:17:58;;;;;;;3.10;2.00;;;14.00;99.90;;;14.21;66.72;98240.25;4897026;28;102253;-36
2024/02/11 03:20:24;;;;;;;5.43;1.93;;;14.00;99.90;;;14.19;66.70;98242.22;4905527;28;99413;-37
2024/02/11 03:22:52;;;;;;;3.67;2.33;;;13.90;99.90;;;14.16;67.11;98247.75;4908348;28;107590;-36
2024/02/11 03:25:18;;;;;;;2.03;1.83;;;13.90;99.90;;;14.18;67.18;98240.53;4908604;28;104777;-36
2024/02/11 03:27:45;;;;;;;4.20;2.17;;;13.90;99.90;;;14.23;65.17;98243.63;4915679;28;102880;-39
2024/02/11 03:30:12;;;;;;;2.87;2.20;;;13.90;99.90;;;14.21;66.43;98245.56;4910843;28;98699;-36
2024/02/11 03:32:40;;;;;;;4.23;2.27;;;13.90;99.90;;;14.26;66.11;98243.34;4916527;28;97508;-37
2024/02/11 03:35:07;;;;;;;3.43;2.00;;;13.90;99.90;;;14.25;66.60;98257.56;4901313;28;97222;-36
2024/02/11 03:37:33;;;;;;;3.03;2.53;;;13.90;99.90;;;14.29;66.08;98251.00;4896523;28;104214;-37
2024/02/11 03:40:03;;;;;;;1.67;1.57;;;14.00;99.90;;;14.34;64.65;98248.81;4895211;28;99660;-37
2024/02/11 03:42:28;;;;;;;2.13;1.83;;;14.00;99.90;;;14.30;66.32;98255.34;4907133;28;97450;-37
2024/02/11 03:44:54;;;;;;;2.53;1.87;;;14.00;99.90;;;14.33;66.24;98255.09;4902208;28;115340;-37
2024/02/11 03:47:22;;;;;;;2.03;1.63;;;14.10;99.90;;;14.43;65.09;98260.38;4908023;28;101515;-36
2024/02/11 03:49:49;;;;;;;2.30;1.60;;;14.10;99.90;;;14.45;64.74;98259.31;4902704;28;104031;-37
2024/02/11 03:52:15;;;;;;;1.73;1.40;;;14.10;99.90;;;14.50;63.18;98262.41;4902888;28;97633;-36
2024/02/11 03:54:43;;;;;;;3.87;2.33;;;14.20;99.90;;;14.50;64.78;98265.06;4926457;28;114464;-37
2024/02/11 03:57:09;;;;;;;1.83;1.67;;;14.20;99.90;;;14.52;63.55;98265.75;4896831;28;118935;-36
2024/02/11 03:59:35;;;;;;;1.47;1.23;;;14.20;99.90;;;14.56;63.39;98271.63;4905816;28;126535;-37
2024/02/11 04:02:03;;;;;;;2.07;1.90;;;14.20;99.90;;;14.58;64.76;98281.09;4900025;28;112596;-35
2024/02/11 04:04:28;;;;;;;3.87;2.10;;;14.30;99.90;;;14.51;64.91;98280.00;4900924;28;97447;-36
2024/02/11 04:06:54;;;;;;;2.33;1.70;;;14.20;99.90;;;14.46;64.50;98279.53;4904793;28;98586;-37
2024/02/11 04:09:28;;;;;;;2.07;1.73;;;14.20;99.90;;;14.43;65.42;98282.44;4912000;28;122592;-38
2024/02/11 04:11:58;;;;;;;2.53;1.20;;;14.20;99.90;;;14.53;63.40;98277.19;4903297;28;97544;-38
2024/02/11 04:14:23;;;;;;;3.00;2.03;;;14.20;99.90;;;14.55;64.78;98284.03;4896939;28;97392;-36
2024/02/11 04:16:55;;;;;;;3.87;2.10;;;14.30;99.90;;;14.57;64.29;98284.75;4891612;28;105816;-38
2024/02/11 04:19:21;;;;;;;3.50;2.00;;;14.30;99.90;;;14.64;63.31;98281.56;4904084;28;103408;-37
2024/02/11 04:21:48;;;;;;;3.20;1.80;;;14.30;99.90;;;14.65;63.80;98288.53;4906213;28;107582;-37
2024/02/11 04:24:15;;;;;;;2.97;1.83;;;14.40;99.90;;;14.68;64.00;98285.59;4903366;28;97238;-36
2024/02/11 04:26:42;;;;;;;3.13;1.90;;;14.40;99.90;;;14.62;64.17;98283.50;4900581;28;98478;-36
2024/02/11 04:29:11;;;;;;;2.67;2.10;;;14.40;99.90;;;14.54;64.48;98290.31;4909153;28;103158;-36
2024/02/11 04:31:39;;;;;;;2.80;2.00;;;14.30;99.90;;;14.45;65.76;98285.81;4928102;28;101567;-37
2024/02/11 04:34:08;;;;;;;4.00;2.13;;;14.30;99.90;;;14.38;66.13;98295.28;4908243;28;97228;-38
2024/02/11 04:36:37;;;;;;;3.13;2.10;;;14.20;99.90;;;14.31;66.07;98296.78;4897790;28;103980;-36
2024/02/11 04:39:08;;;;;;;2.93;2.40;;;14.10;99.90;;;14.25;66.66;98294.69;4906936;28;108516;-36
2024/02/11 04:41:40;;;;;;;2.83;2.13;;;14.00;99.90;;;14.18;67.24;98299.69;4899419;28;98455;-36
2024/02/11 04:44:06;;;;;;;4.43;2.03;;;14.00;99.90;;;14.23;66.92;98291.34;4896265;28;97593;-40
2024/02/11 04:46:33;;;;;;;3.40;2.47;;;14.00;99.90;;;14.09;68.31;98291.69;4901545;28;98950;-36
2024/02/11 04:49:05;;;;;;;3.00;1.97;;;13.90;99.90;;;14.13;65.79;98293.09;4925533;28;97570;-36
2024/02/11 04:51:31;;;;;;;3.10;1.77;;;13.90;99.90;;;14.10;67.09;98288.91;4906877;28;97296;-37
2024/02/11 04:53:57;;;;;;;2.67;2.10;;;13.90;99.90;;;14.07;67.24;98301.59;4894358;28;97648;-36
2024/02/11 04:56:27;;;;;;;3.43;2.53;;;13.90;99.90;;;14.11;66.46;98301.19;4908432;28;99779;-36
2024/02/11 04:58:53;;;;;;;5.43;2.70;;;13.90;99.90;;;14.09;67.53;98300.50;4901390;28;99316;-37
2024/02/11 05:01:20;;;;;;;2.07;1.40;;;13.90;99.90;;;14.11;66.01;98303.84;4914251;28;97372;-38
2024/02/11 05:03:47;;;;;;;3.90;2.43;;;13.90;99.90;;;14.10;66.29;98307.47;4909159;28;97573;-38
2024/02/11 05:06:23;;;;;;;2.73;2.00;;;13.90;99.90;;;14.10;66.49;98307.47;4907629;28;102559;-37
2024/02/11 05:08:50;;;;;;;1.70;1.27;;;13.90;99.90;;;14.20;64.62;98313.66;4901889;28;101901;-36
2024/02/11 05:11:16;;;;;;;4.50;2.63;;;13.90;99.90;;;14.11;66.52;98318.91;4899823;28;97460;-37
2024/02/11 05:13:43;;;;;;;4.37;2.57;;;13.90;99.90;;;14.07;67.19;98322.81;4890867;28;105928;-39
2024/02/11 05:16:14;;;;;;;4.17;2.90;;;13.90;99.90;;;14.11;66.79;98313.59;4897068;28;99851;-37
2024/02/11 05:18:42;;;;;;;7.57;2.80;;;13.90;99.90;;;14.09;67.07;98326.16;4900948;28;99364;-38
2024/02/11 05:21:09;;;;;;;4.93;2.43;;;13.90;99.90;;;14.04;67.04;98329.22;4914133;28;106534;-37
2024/02/11 05:23:36;;;;;;;6.40;2.83;;;13.90;99.90;;;14.11;66.56;98340.13;4909155;28;97617;-35
2024/02/11 05:26:05;;;;;;;3.00;2.70;;;13.90;99.90;;;14.09;66.95;98347.38;4912329;28;105203;-38
2024/02/11 05:28:34;;;;;;;3.63;2.50;;;13.90;99.90;;;14.04;67.04;98354.88;4904675;28;99019;-37
2024/02/11 05:31:01;;;;;;;5.10;2.40;;;13.90;99.90;;;13.99;67.14;98358.75;4909255;28;97731;-36
2024/02/11 05:33:27;;;;;;;3.00;2.10;;;13.90;99.90;;;14.03;66.47;98364.63;4899411;28;97107;-37
2024/02/11 05:35:53;;;;;;;3.07;2.10;;;13.90;99.90;;;13.96;66.15;98364.31;4909276;28;100079;-36
2024/02/11 05:38:24;;;;;;;3.47;1.73;;;13.90;99.90;;;13.96;66.43;98372.25;4905026;28;97818;-36
2024/02/11 05:40:50;;;;;;;2.80;1.63;;;13.90;99.90;;;13.87;66.44;98391.59;4908817;28;97228;-37
2024/02/11 05:43:16;;;;;;;0.97;0.40;;;13.90;99.90;;;13.83;66.05;98394.63;4909782;28;97194;-36
2024/02/11 05:45:46;;;;;;;0.30;0.20;;;13.80;99.90;;;13.67;66.04;98401.22;4908065;28;120920;-37
2024/02/11 05:48:13;;;;;;;2.03;0.10;;;13.70;99.90;;;13.65;65.31;98402.31;4913039;28;98910;-37
2024/02/11 05:50:39;;;;;;;0.97;0.30;;;13.80;99.90;;;13.57;65.95;98404.75;4903233;28;101247;-35
2024/02/11 05:53:06;;;;;;;0.40;0.40;;;13.70;99.90;;;13.44;65.76;98426.13;4900005;28;99750;-36
2024/02/11 05:55:33;;;;;;;0.30;0.30;;;13.50;99.90;;;13.64;66.07;98432.44;4910491;28;97442;-36
2024/02/11 05:57:59;;;;;;;3.30;0.97;;;13.60;99.90;;;13.78;64.87;98423.34;4901342;28;98756;-38
2024/02/11 06:00:29;;;;;;;4.27;0.60;;;13.80;99.90;;;13.87;63.67;98433.13;4907591;28;108391;-37
2024/02/11 06:02:56;;;;;;;1.33;0.50;;;13.90;99.90;;;14.13;62.97;98437.09;4908935;28;97701;-37
2024/02/11 06:05:23;;;;;;;0.60;0.30;;;14.20;99.90;;;13.92;60.93;98436.25;4903239;28;99902;-41
2024/02/11 06:07:54;;;;;;;0.50;0.30;;;14.10;99.90;;;13.95;62.23;98443.94;4909391;28;101566;-37
2024/02/11 06:10:26;;;;;;;1.07;0.53;;;13.90;99.90;;;14.15;60.46;98452.84;4906955;28;104931;-36
2024/02/11 06:12:52;;;;;;;0.70;0.40;;;14.20;99.90;;;14.20;61.16;98450.69;4904780;28;97427;-36
2024/02/11 06:15:22;;;;;;;1.83;0.50;;;14.20;99.90;;;14.10;62.18;98449.75;4917987;28;104140;-37
2024/02/11 06:17:57;;;;;;;1.43;0.70;;;14.10;99.90;;;14.11;60.35;98451.44;4908421;28;103288;-36
2024/02/11 06:20:23;;;;;;;2.63;0.70;;;14.10;99.90;;;13.90;58.57;98468.19;4888565;28;97267;-36
2024/02/11 06:22:52;;;;;;;1.43;0.83;;;13.90;99.90;;;13.92;59.54;98473.38;4924214;28;98477;-36
2024/02/11 06:25:22;;;;;;;1.37;0.77;;;13.80;99.90;;;13.76;60.37;98471.16;4905616;28;103748;-36
2024/02/11 06:27:49;;;;;;;3.40;0.80;;;13.70;99.90;;;13.75;59.27;98477.44;4917987;28;102118;-35
2024/02/11 06:30:17;;;;;;;1.30;0.80;;;13.60;99.90;;;13.68;60.13;98470.94;4902109;28;97739;-37
2024/02/11 06:32:53;;;;;;;1.80;0.60;;;13.50;99.90;;;13.46;58.79;98481.63;4915309;28;97814;-36
2024/02/11 06:35:20;;;;;;;3.63;0.70;;;13.30;99.90;;;13.47;60.36;98493.91;4910007;28;102895;-37
2024/02/11 06:37:48;;;;;;;2.73;0.73;;;13.30;99.90;;;13.49;63.47;98499.91;4895489;28;107682;-37
2024/02/11 06:40:17;;;;;;;1.93;0.87;;;13.20;99.90;;;13.36;60.40;98494.78;4882372;28;100151;-37
2024/02/11 06:42:47;;;;;;;3.80;0.97;;;13.20;99.90;;;13.48;63.24;98508.81;4905651;28;97630;-37
2024/02/11 06:45:13;;;;;;;2.60;0.70;;;13.20;99.90;;;13.43;62.97;98503.03;4880103;28;104297;-37
2024/02/11 06:47:40;;;;;;;3.50;1.20;;;13.20;99.90;;;13.36;60.23;98518.59;4920365;28;99420;-35
2024/02/11 06:50:09;;;;;;;2.17;0.90;;;13.20;99.90;;;13.52;61.42;98519.03;4920187;28;97700;-36
2024/02/11 06:52:36;;;;;;;2.87;1.23;;;13.20;99.90;;;13.44;59.28;98515.31;4904018;28;97815;-37
2024/02/11 06:55:05;;;;;;;3.20;1.10;;;13.20;99.90;;;13.42;60.23;98510.16;4900984;28;99861;-35
2024/02/11 06:57:32;;;;;;;2.13;0.87;;;13.20;99.90;;;13.38;60.82;98517.50;4900820;28;98712;-37
2024/02/11 06:59:59;;;;;;;4.23;1.30;;;13.20;99.90;;;13.37;61.24;98526.41;4902216;28;97584;-37
2024/02/11 07:02:28;;;;;;;4.10;1.17;;;13.10;99.90;;;13.30;61.04;98535.78;4907246;28;106441;-37
2024/02/11 07:04:55;;;;;;;2.83;1.13;;;13.10;99.90;;;13.33;62.99;98540.88;4905358;28;98827;-35
2024/02/11 07:07:22;;;;;;;2.80;1.20;;;13.10;99.90;;;13.25;60.66;98542.44;4908036;28;98320;-37
2024/02/11 07:09:48;;;;;;;1.27;0.93;;;13.10;99.90;;;13.22;61.50;98554.13;4897937;28;100924;-36
2024/02/11 07:12:16;;;;;;;3.57;1.10;;;13.10;99.90;;;13.15;60.93;98542.28;4914037;28;97567;-35
2024/02/11 07:14:46;;;;;;;2.40;1.10;;;13.00;99.90;;;13.26;63.22;98550.25;4903852;28;98078;-36
2024/02/11 07:17:15;;;;;;;3.27;0.93;;;13.00;99.90;;;13.18;63.72;98544.75;4907537;28;99504;-38
2024/02/11 07:19:42;;;;;;;2.97;1.10;;;12.90;99.90;;;13.17;63.45;98544.84;4900582;28;97572;-35
2024/02/11 07:22:11;;;;;;;3.33;1.50;;;12.90;99.90;;;13.14;63.79;98553.00;4915263;28;97688;-36
2024/02/11 07:24:38;;;;;;;4.53;0.90;;;12.90;99.90;;;13.08;63.95;98556.97;4901422;28;101448;-37
2024/02/11 07:27:06;;;;;;;1.43;0.90;;;12.90;99.90;;;13.10;64.72;98565.63;4903058;28;98405;-35
2024/02/11 07:29:33;;;;;;;5.20;1.20;;;12.80;99.90;;;13.05;64.73;98575.75;4899706;28;97582;-37
2024/02/11 07:31:59;;;;;;;2.80;1.13;;;12.80;99.90;;;13.00;63.79;98584.03;4904813;28;97260;-35
2024/02/11 07:34:26;;;;;;;4.17;1.57;;;12.80;99.90;;;12.93;64.27;98600.53;4907975;28;97514;-37
2024/02/11 07:36:52;;;;;;;3.03;1.07;;;12.70;99.90;;;12.91;64.66;98613.03;4900101;28;98264;-36
2024/02/11 07:39:18;;;;;;;7.73;1.50;;;12.60;99.90;;;12.86;64.50;98599.28;4902363;28;98447;-37
2024/02/11 07:41:45;;;;;;;6.03;1.33;;;12.70;99.90;;;12.86;64.25;98609.88;4902758;28;97654;-36
2024/02/11 07:44:12;;;;;;;2.43;1.20;;;12.70;99.90;;;12.85;64.13;98609.03;4897690;28;99776;-36
2024/02/11 07:46:42;;;;;;;3.00;1.27;;;12.70;99.90;;;12.84;64.18;98623.22;4903599;28;97528;-37
2024/02/11 07:49:10;;;;;;;4.80;1.60;;;12.70;99.90;;;12.79;64.73;98623.59;4904559;28;97687;-37
2024/02/11 07:51:37;;;;;;;5.47;1.63;;;12.70;99.90;;;12.89;66.27;98626.38;4898823;28;101236;-36
2024/02/11 07:54:03;;;;;;;8.43;1.40;;;12.70;99.90;;;12.72;63.76;98630.28;4892247;28;100535;-37
2024/02/11 07:56:29;;;;;;;5.17;1.50;;;12.70;99.90;;;12.63;63.99;98633.66;4903222;28;98316;-38
2024/02/11 07:58:55;;;;;;;1.67;1.00;;;12.60;99.90;;;12.55;64.45;98638.66;4924279;28;97815;-35
2024/02/11 08:01:21;;;;;;;3.20;1.40;;;12.50;99.90;;;12.54;65.69;98644.06;4903467;28;108779;-37
2024/02/11 08:03:47;;;;;;;5.83;1.50;;;12.50;99.90;;;12.52;65.16;98641.56;4903387;28;99180;-37
2024/02/11 08:06:13;;;;;;;2.13;1.10;;;12.40;99.90;;;12.44;65.82;98646.56;4898582;28;99721;-38
2024/02/11 08:08:39;;;;;;;2.57;1.37;;;12.40;99.90;;;12.48;66.17;98648.03;4906201;28;108992;-37
2024/02/11 08:11:05;;;;;;;2.67;1.20;;;12.40;99.90;;;12.47;66.19;98646.34;4911550;28;108033;-37
2024/02/11 08:13:32;;;;;;;2.80;0.97;;;12.40;99.90;;;12.49;66.29;98649.72;4904418;28;101309;-36
2024/02/11 08:16:03;;;;;;;2.80;1.40;;;12.40;99.90;;;12.49;66.85;98655.00;4909130;28;98090;-37
2024/02/11 08:18:29;;;;;;;5.87;1.33;;;12.40;99.90;;;12.47;66.95;98656.94;4901181;28;97869;-35
2024/02/11 08:20:57;;;;;;;4.13;1.60;;;12.40;99.90;;;12.42;67.74;98659.06;4927438;28;97585;-37
2024/02/11 08:23:24;;;;;;;2.77;1.43;;;12.30;99.90;;;12.42;67.78;98666.97;4904819;28;98452;-36
2024/02/11 08:25:51;;;;;;;3.80;1.37;;;12.30;99.90;;;12.42;67.69;98664.34;4902073;28;100640;-36
2024/02/11 08:28:17;;;;;;;4.70;1.30;;;12.30;99.90;;;12.41;67.27;98662.66;4904483;28;97204;-37
2024/02/11 08:30:43;;;;;;;4.83;1.40;;;12.30;99.90;;;12.43;67.67;98666.03;4919922;28;97456;-36
2024/02/11 08:33:09;;;;;;;4.63;1.53;;;12.30;99.90;;;12.41;67.39;98673.22;4905246;28;99877;-37
2024/02/11 08:35:36;;;;;;;4.83;1.97;;;12.30;99.90;;;12.41;68.15;98678.53;4904092;28;102869;-37
2024/02/11 08:38:03;;;;;;;2.30;1.30;;;12.30;99.90;;;12.42;68.41;98680.22;4892360;28;97586;-39
2024/02/11 08:40:30;;;;;;;4.17;1.70;;;12.30;99.90;;;12.43;68.47;98685.38;4922897;28;97864;-36
2024/02/11 08:42:59;;;;;;;2.70;1.27;;;12.30;99.90;;;12.44;68.72;98683.56;4904028;28;99172;-36
2024/02/11 08:45:25;;;;;;;4.60;1.40;;;12.30;99.90;;;12.44;68.67;98683.56;4896302;28;98061;-37
2024/02/11 08:47:50;;;;;;;2.93;1.47;;;12.30;99.90;;;12.43;68.34;98687.19;4906873;28;99874;-35
2024/02/11 08:50:17;;;;;;;2.70;1.57;;;12.30;99.90;;;12.47;68.29;98688.66;4901446;28;99843;-35
2024/02/11 08:52:43;;;;;;;5.37;1.50;;;12.40;99.90;;;12.51;68.55;98700.69;4902295;28;104805;-36
2024/02/11 08:55:11;;;;;;;2.87;1.50;;;12.40;99.90;;;12.55;68.53;98701.28;4908417;28;98943;-38
2024/02/11 08:57:37;;;;;;;4.17;1.53;;;12.40;99.90;;;12.57;67.48;98702.88;4906221;28;99526;-36
2024/02/11 09:00:09;;;;;;;5.20;1.50;;;12.40;99.90;;;12.65;68.49;98708.44;4906644;28;98850;-38
2024/02/11 09:02:37;;;;;;;6.60;1.60;;;12.50;99.90;;;12.70;67.90;98708.94;4910623;28;103841;-37
2024/02/11 09:05:04;;;;;;;2.67;1.50;;;12.50;99.90;;;12.75;67.99;98709.44;4905533;28;121985;-36
2024/02/11 09:07:29;;;;;;;7.53;1.77;;;12.50;99.90;;;12.91;67.76;98714.41;4902740;28;97363;-36
2024/02/11 09:09:55;;;;;;;6.63;1.83;;;12.60;99.90;;;13.14;67.10;98715.28;4920905;28;116792;-37
2024/02/11 09:12:22;;;;;;;3.93;1.67;;;12.80;99.90;;;13.21;66.63;98708.63;4915466;28;128736;-37
2024/02/11 09:14:47;;;;;;;1.30;0.80;;;12.90;99.90;;;13.48;65.61;98712.75;4898776;28;103554;-38
2024/02/11 09:17:16;;;;;;;3.33;1.40;;;13.10;99.90;;;13.60;65.19;98717.06;4912903;28;98840;-36
2024/02/11 09:19:41;;;;;;;2.53;1.27;;;13.20;99.90;;;13.73;64.48;98707.16;4912524;28;99413;-37
2024/02/11 09:22:07;;;;;;;1.20;0.97;;;13.30;99.90;;;13.90;63.52;98709.34;4909658;28;122393;-37
2024/02/11 09:24:33;;;;;;;3.17;1.07;;;13.60;99.90;;;14.07;63.15;98704.50;4913523;28;117900;-36
2024/02/11 09:26:59;;;;;;;6.07;1.80;;;13.80;99.90;;;14.11;62.45;98708.56;4900410;28;97658;-36
2024/02/11 09:29:26;;;;;;;2.77;1.10;;;13.90;99.90;;;14.29;62.23;98713.22;4902883;28;98045;-38
2024/02/11 09:31:52;;;;;;;1.53;0.70;;;14.00;99.90;;;14.41;61.57;98719.34;4911318;28;99932;-37
2024/02/11 09:34:21;;;;;;;3.47;1.43;;;14.20;99.90;;;14.42;61.67;98715.72;4905142;28;105792;-35
2024/02/11 09:36:47;;;;;;;2.33;1.20;;;14.20;99.90;;;14.36;61.69;98718.88;4906224;28;97572;-37
2024/02/11 09:39:13;;;;;;;2.40;1.30;;;14.10;99.90;;;14.45;61.74;98720.78;4903695;28;97515;-36
2024/02/11 09:41:39;;;;;;;4.53;1.37;;;14.10;99.90;;;14.46;61.13;98722.47;4912468;28;99752;-37
2024/02/11 09:44:09;;;;;;;4.23;2.00;;;14.10;99.90;;;14.39;61.83;98725.75;4911615;28;119264;-36
2024/02/11 09:46:37;;;;;;;3.67;1.67;;;14.10;99.90;;;14.51;61.27;98736.22;4908975;28;98888;-34
2024/02/11 09:49:14;;;;;;;4.23;1.70;;;14.10;99.90;;;14.43;61.80;98728.00;4885168;28;97726;-37
2024/02/11 09:51:42;;;;;;;4.43;1.97;;;14.10;99.90;;;14.30;61.11;98733.47;4874566;28;102154;-38
2024/02/11 09:54:08;;;;;;;3.47;1.77;;;14.00;99.90;;;14.39;61.82;98723.94;4877034;28;97738;-35
2024/02/11 09:56:36;;;;;;;3.73;1.80;;;14.10;99.90;;;14.42;61.75;98730.78;4878235;28;98343;-38
2024/02/11 09:59:02;;;;;;;2.77;1.60;;;14.10;99.90;;;14.37;61.92;98735.63;4859529;28;111927;-35
2024/02/11 10:01:31;;;;;;;8.73;2.23;;;14.10;99.90;;;14.47;61.67;98732.16;4854785;28;97928;-38
2024/02/11 10:04:00;;;;;;;3.20;1.90;;;14.10;99.90;;;14.33;62.31;98736.84;4863231;28;98845;-39
2024/02/11 10:06:37;;;;;;;3.87;2.10;;;14.00;99.90;;;14.38;62.16;98746.13;4865301;28;98326;-38
2024/02/11 10:09:18;;;;;;;7.20;2.07;;;14.00;99.90;;;14.20;63.58;98737.00;4870578;28;97751;-37
2024/02/11 10:11:45;;;;;;;1.70;1.40;;;13.90;99.90;;;14.24;63.09;98733.97;4864131;28;103370;-38
2024/02/11 10:14:13;;;;;;;1.77;0.77;;;13.90;99.90;;;14.32;62.27;98733.38;4868051;28;98044;-38
2024/02/11 10:16:41;;;;;;;4.13;1.40;;;14.00;99.90;;;14.29;62.29;98730.94;4826836;28;100581;-38